sensor_id;sensor_type;location;lat;lon;timestamp;P1;durP1;ratioP1;P2;durP2;ratioP2
20589;SDS011;10453;50.810;12.540;2023-04-15T00:00:38;18.08;;;13.07;;
20589;SDS011;10453;50.810;12.540;2023-04-15T00:04:55;17.90;;;12.43;;
20589;SDS011;10453;50.810;12.540;2023-04-15T00:09:12;17.50;;;12.10;;
20589;SDS011;10453;50.810;12.540;2023-04-15T00:13:30;20.23;;;12.98;;
20589;SDS011;10453;50.810;12.540;2023-04-15T00:17:49;18.10;;;12.50;;
20589;SDS011;10453;50.810;12.540;2023-04-15T00:22:07;17.13;;;12.32;;
20589;SDS011;10453;50.810;12.540;2023-04-15T00:26:25;22.27;;;13.18;;
20589;SDS011;10453;50.810;12.540;2023-04-15T00:30:42;20.20;;;13.90;;
20589;SDS011;10453;50.810;12.540;2023-04-15T00:35:00;17.03;;;12.40;;
20589;SDS011;10453;50.810;12.540;2023-04-15T00:39:17;17.63;;;12.02;;
20589;SDS011;10453;50.810;12.540;2023-04-15T00:43:35;17.83;;;12.50;;
20589;SDS011;10453;50.810;12.540;2023-04-15T00:47:52;16.00;;;11.93;;
20589;SDS011;10453;50.810;12.540;2023-04-15T00:52:09;19.23;;;12.18;;
20589;SDS011;10453;50.810;12.540;2023-04-15T00:56:26;17.02;;;11.70;;
20589;SDS011;10453;50.810;12.540;2023-04-15T01:00:45;16.27;;;11.25;;
20589;SDS011;10453;50.810;12.540;2023-04-15T01:05:02;17.08;;;11.98;;
20589;SDS011;10453;50.810;12.540;2023-04-15T01:09:20;16.92;;;12.38;;
20589;SDS011;10453;50.810;12.540;2023-04-15T01:13:38;16.30;;;11.70;;
20589;SDS011;10453;50.810;12.540;2023-04-15T01:17:57;22.35;;;13.02;;
20589;SDS011;10453;50.810;12.540;2023-04-15T01:22:15;19.90;;;12.73;;
20589;SDS011;10453;50.810;12.540;2023-04-15T01:26:32;21.27;;;13.77;;
20589;SDS011;10453;50.810;12.540;2023-04-15T01:30:50;22.55;;;14.35;;
20589;SDS011;10453;50.810;12.540;2023-04-15T01:35:23;19.27;;;12.63;;
20589;SDS011;10453;50.810;12.540;2023-04-15T01:39:40;20.33;;;12.95;;
20589;SDS011;10453;50.810;12.540;2023-04-15T01:43:57;17.23;;;12.48;;
20589;SDS011;10453;50.810;12.540;2023-04-15T01:48:14;18.92;;;12.55;;
20589;SDS011;10453;50.810;12.540;2023-04-15T01:52:32;17.67;;;12.23;;
20589;SDS011;10453;50.810;12.540;2023-04-15T01:56:49;21.65;;;11.45;;
20589;SDS011;10453;50.810;12.540;2023-04-15T02:01:06;15.75;;;10.80;;
20589;SDS011;10453;50.810;12.540;2023-04-15T02:05:25;14.25;;;10.50;;
20589;SDS011;10453;50.810;12.540;2023-04-15T02:09:43;14.98;;;10.07;;
20589;SDS011;10453;50.810;12.540;2023-04-15T02:14:02;18.77;;;11.95;;
20589;SDS011;10453;50.810;12.540;2023-04-15T02:18:22;15.93;;;10.95;;
20589;SDS011;10453;50.810;12.540;2023-04-15T02:22:39;17.20;;;11.48;;
20589;SDS011;10453;50.810;12.540;2023-04-15T02:26:56;17.70;;;11.02;;
20589;SDS011;10453;50.810;12.540;2023-04-15T02:31:13;17.02;;;11.60;;
20589;SDS011;10453;50.810;12.540;2023-04-15T02:35:31;23.08;;;13.65;;
20589;SDS011;10453;50.810;12.540;2023-04-15T02:39:48;20.15;;;13.68;;
20589;SDS011;10453;50.810;12.540;2023-04-15T02:44:05;26.45;;;15.15;;
20589;SDS011;10453;50.810;12.540;2023-04-15T02:48:27;27.73;;;17.00;;
20589;SDS011;10453;50.810;12.540;2023-04-15T02:52:44;32.30;;;19.40;;
20589;SDS011;10453;50.810;12.540;2023-04-15T02:57:01;42.45;;;21.60;;
20589;SDS011;10453;50.810;12.540;2023-04-15T03:01:19;48.20;;;23.10;;
20589;SDS011;10453;50.810;12.540;2023-04-15T03:05:36;42.40;;;22.48;;
20589;SDS011;10453;50.810;12.540;2023-04-15T03:09:54;39.38;;;22.40;;
20589;SDS011;10453;50.810;12.540;2023-04-15T03:14:12;41.25;;;23.05;;
20589;SDS011;10453;50.810;12.540;2023-04-15T03:18:29;41.33;;;23.33;;
20589;SDS011;10453;50.810;12.540;2023-04-15T03:22:46;39.88;;;24.30;;
20589;SDS011;10453;50.810;12.540;2023-04-15T03:27:03;39.75;;;22.95;;
20589;SDS011;10453;50.810;12.540;2023-04-15T03:31:23;43.47;;;25.40;;
20589;SDS011;10453;50.810;12.540;2023-04-15T03:35:40;43.22;;;24.48;;
20589;SDS011;10453;50.810;12.540;2023-04-15T03:39:58;40.80;;;25.20;;
20589;SDS011;10453;50.810;12.540;2023-04-15T03:44:15;33.58;;;21.80;;
20589;SDS011;10453;50.810;12.540;2023-04-15T03:48:32;28.33;;;18.60;;
20589;SDS011;10453;50.810;12.540;2023-04-15T03:52:49;30.73;;;18.88;;
20589;SDS011;10453;50.810;12.540;2023-04-15T03:57:07;30.80;;;19.70;;
20589;SDS011;10453;50.810;12.540;2023-04-15T04:01:24;29.10;;;18.38;;
20589;SDS011;10453;50.810;12.540;2023-04-15T04:05:41;25.35;;;15.75;;
20589;SDS011;10453;50.810;12.540;2023-04-15T04:14:17;25.45;;;16.67;;
20589;SDS011;10453;50.810;12.540;2023-04-15T04:18:34;27.65;;;16.65;;
20589;SDS011;10453;50.810;12.540;2023-04-15T04:22:51;26.13;;;16.23;;
20589;SDS011;10453;50.810;12.540;2023-04-15T04:27:08;24.15;;;15.52;;
20589;SDS011;10453;50.810;12.540;2023-04-15T04:31:25;21.67;;;14.75;;
20589;SDS011;10453;50.810;12.540;2023-04-15T04:35:43;27.02;;;16.67;;
20589;SDS011;10453;50.810;12.540;2023-04-15T04:40:00;23.35;;;16.10;;
20589;SDS011;10453;50.810;12.540;2023-04-15T04:44:17;28.05;;;17.73;;
20589;SDS011;10453;50.810;12.540;2023-04-15T04:48:34;32.28;;;19.35;;
20589;SDS011;10453;50.810;12.540;2023-04-15T04:52:51;33.30;;;19.58;;
20589;SDS011;10453;50.810;12.540;2023-04-15T04:57:09;30.00;;;19.45;;
20589;SDS011;10453;50.810;12.540;2023-04-15T05:01:26;33.17;;;20.50;;
20589;SDS011;10453;50.810;12.540;2023-04-15T05:05:43;31.83;;;19.67;;
20589;SDS011;10453;50.810;12.540;2023-04-15T05:10:01;37.17;;;23.23;;
20589;SDS011;10453;50.810;12.540;2023-04-15T05:14:19;37.65;;;23.98;;
20589;SDS011;10453;50.810;12.540;2023-04-15T05:18:38;47.20;;;26.38;;
20589;SDS011;10453;50.810;12.540;2023-04-15T05:22:56;54.45;;;27.30;;
20589;SDS011;10453;50.810;12.540;2023-04-15T05:27:13;44.85;;;25.45;;
20589;SDS011;10453;50.810;12.540;2023-04-15T05:31:30;52.20;;;27.52;;
20589;SDS011;10453;50.810;12.540;2023-04-15T05:35:48;44.08;;;25.92;;
20589;SDS011;10453;50.810;12.540;2023-04-15T05:40:05;44.38;;;25.33;;
20589;SDS011;10453;50.810;12.540;2023-04-15T05:44:22;49.47;;;27.38;;
20589;SDS011;10453;50.810;12.540;2023-04-15T05:48:39;50.13;;;26.63;;
20589;SDS011;10453;50.810;12.540;2023-04-15T05:52:57;41.90;;;23.20;;
20589;SDS011;10453;50.810;12.540;2023-04-15T05:57:14;35.72;;;21.63;;
20589;SDS011;10453;50.810;12.540;2023-04-15T06:01:34;34.80;;;20.25;;
20589;SDS011;10453;50.810;12.540;2023-04-15T06:05:51;26.52;;;17.77;;
20589;SDS011;10453;50.810;12.540;2023-04-15T06:10:08;26.58;;;17.08;;
20589;SDS011;10453;50.810;12.540;2023-04-15T06:14:26;27.00;;;16.00;;
20589;SDS011;10453;50.810;12.540;2023-04-15T06:18:44;22.55;;;15.00;;
20589;SDS011;10453;50.810;12.540;2023-04-15T06:23:01;24.55;;;15.23;;
20589;SDS011;10453;50.810;12.540;2023-04-15T06:27:18;23.55;;;15.35;;
20589;SDS011;10453;50.810;12.540;2023-04-15T06:31:35;31.90;;;17.48;;
20589;SDS011;10453;50.810;12.540;2023-04-15T06:35:53;29.23;;;16.95;;
20589;SDS011;10453;50.810;12.540;2023-04-15T06:40:10;29.13;;;17.63;;
20589;SDS011;10453;50.810;12.540;2023-04-15T06:44:28;20.23;;;14.18;;
20589;SDS011;10453;50.810;12.540;2023-04-15T06:48:49;17.98;;;13.05;;
20589;SDS011;10453;50.810;12.540;2023-04-15T06:53:06;17.73;;;12.20;;
20589;SDS011;10453;50.810;12.540;2023-04-15T06:57:25;23.02;;;13.30;;
20589;SDS011;10453;50.810;12.540;2023-04-15T07:01:42;20.17;;;13.48;;
20589;SDS011;10453;50.810;12.540;2023-04-15T07:05:59;18.20;;;12.20;;
20589;SDS011;10453;50.810;12.540;2023-04-15T07:10:17;30.67;;;17.17;;
20589;SDS011;10453;50.810;12.540;2023-04-15T07:14:35;25.90;;;15.40;;
20589;SDS011;10453;50.810;12.540;2023-04-15T07:18:52;28.70;;;16.17;;
20589;SDS011;10453;50.810;12.540;2023-04-15T07:23:09;19.77;;;13.88;;
20589;SDS011;10453;50.810;12.540;2023-04-15T07:27:26;21.38;;;15.43;;
20589;SDS011;10453;50.810;12.540;2023-04-15T07:31:44;24.60;;;16.15;;
20589;SDS011;10453;50.810;12.540;2023-04-15T07:36:01;25.70;;;16.13;;
20589;SDS011;10453;50.810;12.540;2023-04-15T07:40:18;24.30;;;15.73;;
20589;SDS011;10453;50.810;12.540;2023-04-15T07:44:35;25.85;;;15.52;;
20589;SDS011;10453;50.810;12.540;2023-04-15T07:48:53;22.10;;;14.73;;
20589;SDS011;10453;50.810;12.540;2023-04-15T07:53:10;21.45;;;14.27;;
20589;SDS011;10453;50.810;12.540;2023-04-15T07:57:27;22.02;;;14.90;;
20589;SDS011;10453;50.810;12.540;2023-04-15T08:01:44;49.40;;;31.27;;
20589;SDS011;10453;50.810;12.540;2023-04-15T08:06:02;37.80;;;25.30;;
20589;SDS011;10453;50.810;12.540;2023-04-15T08:10:20;25.63;;;16.93;;
20589;SDS011;10453;50.810;12.540;2023-04-15T08:14:38;19.07;;;13.63;;
20589;SDS011;10453;50.810;12.540;2023-04-15T08:18:55;14.65;;;11.50;;
20589;SDS011;10453;50.810;12.540;2023-04-15T08:23:13;127.07;;;95.60;;
20589;SDS011;10453;50.810;12.540;2023-04-15T08:27:30;19.42;;;14.52;;
20589;SDS011;10453;50.810;12.540;2023-04-15T08:31:47;46.72;;;35.60;;
20589;SDS011;10453;50.810;12.540;2023-04-15T08:36:05;15.13;;;11.50;;
20589;SDS011;10453;50.810;12.540;2023-04-15T08:40:23;31.17;;;22.63;;
20589;SDS011;10453;50.810;12.540;2023-04-15T08:44:51;10.43;;;9.33;;
20589;SDS011;10453;50.810;12.540;2023-04-15T08:49:10;16.63;;;12.83;;
20589;SDS011;10453;50.810;12.540;2023-04-15T08:53:30;20.08;;;13.48;;
20589;SDS011;10453;50.810;12.540;2023-04-15T08:57:48;21.45;;;17.00;;
20589;SDS011;10453;50.810;12.540;2023-04-15T09:02:06;18.92;;;14.25;;
20589;SDS011;10453;50.810;12.540;2023-04-15T09:06:24;12.10;;;9.50;;
20589;SDS011;10453;50.810;12.540;2023-04-15T09:10:41;30.42;;;22.40;;
20589;SDS011;10453;50.810;12.540;2023-04-15T09:14:58;12.25;;;9.25;;
20589;SDS011;10453;50.810;12.540;2023-04-15T09:19:20;10.15;;;8.85;;
20589;SDS011;10453;50.810;12.540;2023-04-15T09:23:40;9.63;;;8.05;;
20589;SDS011;10453;50.810;12.540;2023-04-15T09:28:10;59.90;;;40.83;;
20589;SDS011;10453;50.810;12.540;2023-04-15T09:32:27;21.02;;;17.17;;
20589;SDS011;10453;50.810;12.540;2023-04-15T09:41:02;11.50;;;10.27;;
20589;SDS011;10453;50.810;12.540;2023-04-15T09:45:20;18.57;;;14.67;;
20589;SDS011;10453;50.810;12.540;2023-04-15T09:49:38;11.13;;;9.68;;
20589;SDS011;10453;50.810;12.540;2023-04-15T09:54:12;19.30;;;16.02;;
20589;SDS011;10453;50.810;12.540;2023-04-15T09:58:36;9.98;;;8.40;;
20589;SDS011;10453;50.810;12.540;2023-04-15T10:02:54;8.70;;;7.85;;
20589;SDS011;10453;50.810;12.540;2023-04-15T10:07:12;44.20;;;29.83;;
20589;SDS011;10453;50.810;12.540;2023-04-15T10:11:30;12.07;;;8.82;;
20589;SDS011;10453;50.810;12.540;2023-04-15T10:20:13;114.70;;;49.58;;
20589;SDS011;10453;50.810;12.540;2023-04-15T10:24:33;29.38;;;17.73;;
20589;SDS011;10453;50.810;12.540;2023-04-15T10:28:50;7.25;;;6.55;;
20589;SDS011;10453;50.810;12.540;2023-04-15T10:37:36;42.50;;;27.80;;
20589;SDS011;10453;50.810;12.540;2023-04-15T10:46:34;56.45;;;35.10;;
20589;SDS011;10453;50.810;12.540;2023-04-15T10:50:56;15.23;;;10.98;;
20589;SDS011;10453;50.810;12.540;2023-04-15T10:55:14;61.75;;;36.10;;
20589;SDS011;10453;50.810;12.540;2023-04-15T10:59:58;25.55;;;18.73;;
20589;SDS011;10453;50.810;12.540;2023-04-15T11:05:01;63.30;;;32.10;;
20589;SDS011;10453;50.810;12.540;2023-04-15T11:09:29;46.28;;;24.55;;
20589;SDS011;10453;50.810;12.540;2023-04-15T11:13:49;39.72;;;22.55;;
20589;SDS011;10453;50.810;12.540;2023-04-15T11:22:26;39.13;;;21.60;;
20589;SDS011;10453;50.810;12.540;2023-04-15T11:26:43;10.98;;;8.15;;
20589;SDS011;10453;50.810;12.540;2023-04-15T11:35:27;13.40;;;9.73;;
20589;SDS011;10453;50.810;12.540;2023-04-15T11:39:48;31.23;;;20.25;;
20589;SDS011;10453;50.810;12.540;2023-04-15T11:44:14;50.30;;;28.95;;
20589;SDS011;10453;50.810;12.540;2023-04-15T11:48:35;20.17;;;16.35;;
20589;SDS011;10453;50.810;12.540;2023-04-15T11:52:53;10.77;;;9.27;;
20589;SDS011;10453;50.810;12.540;2023-04-15T12:01:36;10.77;;;8.32;;
20589;SDS011;10453;50.810;12.540;2023-04-15T12:06:04;9.70;;;8.32;;
20589;SDS011;10453;50.810;12.540;2023-04-15T12:10:23;9.68;;;8.63;;
20589;SDS011;10453;50.810;12.540;2023-04-15T12:14:41;15.67;;;11.30;;
20589;SDS011;10453;50.810;12.540;2023-04-15T12:18:59;11.80;;;9.73;;
20589;SDS011;10453;50.810;12.540;2023-04-15T12:23:20;13.13;;;10.48;;
20589;SDS011;10453;50.810;12.540;2023-04-15T12:27:37;15.57;;;12.15;;
20589;SDS011;10453;50.810;12.540;2023-04-15T12:31:58;14.90;;;12.02;;
20589;SDS011;10453;50.810;12.540;2023-04-15T12:36:23;14.10;;;11.50;;
20589;SDS011;10453;50.810;12.540;2023-04-15T12:40:41;15.60;;;12.30;;
20589;SDS011;10453;50.810;12.540;2023-04-15T12:44:58;16.98;;;11.77;;
20589;SDS011;10453;50.810;12.540;2023-04-15T12:49:15;12.30;;;11.00;;
20589;SDS011;10453;50.810;12.540;2023-04-15T12:53:36;11.27;;;8.95;;
20589;SDS011;10453;50.810;12.540;2023-04-15T12:57:53;11.23;;;10.02;;
20589;SDS011;10453;50.810;12.540;2023-04-15T13:02:10;11.73;;;9.05;;
20589;SDS011;10453;50.810;12.540;2023-04-15T13:06:27;11.35;;;9.38;;
20589;SDS011;10453;50.810;12.540;2023-04-15T13:10:45;16.95;;;13.30;;
20589;SDS011;10453;50.810;12.540;2023-04-15T13:15:02;18.70;;;13.07;;
20589;SDS011;10453;50.810;12.540;2023-04-15T13:19:21;21.80;;;14.65;;
20589;SDS011;10453;50.810;12.540;2023-04-15T13:23:40;14.45;;;10.90;;
20589;SDS011;10453;50.810;12.540;2023-04-15T13:27:57;12.15;;;10.45;;
20589;SDS011;10453;50.810;12.540;2023-04-15T13:32:14;14.20;;;10.30;;
20589;SDS011;10453;50.810;12.540;2023-04-15T13:36:32;14.13;;;9.95;;
20589;SDS011;10453;50.810;12.540;2023-04-15T13:40:49;12.15;;;10.73;;
20589;SDS011;10453;50.810;12.540;2023-04-15T13:45:06;42.38;;;23.77;;
20589;SDS011;10453;50.810;12.540;2023-04-15T13:49:24;19.13;;;12.88;;
20589;SDS011;10453;50.810;12.540;2023-04-15T13:53:41;54.05;;;31.02;;
20589;SDS011;10453;50.810;12.540;2023-04-15T13:57:58;26.88;;;15.95;;
20589;SDS011;10453;50.810;12.540;2023-04-15T14:02:16;22.38;;;13.90;;
20589;SDS011;10453;50.810;12.540;2023-04-15T14:06:33;23.23;;;16.90;;
20589;SDS011;10453;50.810;12.540;2023-04-15T14:10:50;12.00;;;9.75;;
20589;SDS011;10453;50.810;12.540;2023-04-15T14:15:07;14.60;;;11.05;;
20589;SDS011;10453;50.810;12.540;2023-04-15T14:19:25;17.58;;;13.27;;
20589;SDS011;10453;50.810;12.540;2023-04-15T14:23:42;14.07;;;10.77;;
20589;SDS011;10453;50.810;12.540;2023-04-15T14:28:00;16.30;;;11.02;;
20589;SDS011;10453;50.810;12.540;2023-04-15T14:32:18;14.05;;;10.57;;
20589;SDS011;10453;50.810;12.540;2023-04-15T14:36:35;17.42;;;13.32;;
20589;SDS011;10453;50.810;12.540;2023-04-15T14:40:52;17.90;;;13.38;;
20589;SDS011;10453;50.810;12.540;2023-04-15T14:45:10;12.98;;;10.35;;
20589;SDS011;10453;50.810;12.540;2023-04-15T14:49:27;12.00;;;9.95;;
20589;SDS011;10453;50.810;12.540;2023-04-15T14:53:45;11.52;;;9.73;;
20589;SDS011;10453;50.810;12.540;2023-04-15T14:58:03;11.82;;;9.55;;
20589;SDS011;10453;50.810;12.540;2023-04-15T15:02:20;11.05;;;9.65;;
20589;SDS011;10453;50.810;12.540;2023-04-15T15:06:42;13.63;;;10.30;;
20589;SDS011;10453;50.810;12.540;2023-04-15T15:10:59;12.07;;;9.10;;
20589;SDS011;10453;50.810;12.540;2023-04-15T15:15:16;10.05;;;7.80;;
20589;SDS011;10453;50.810;12.540;2023-04-15T15:19:44;11.85;;;8.38;;
20589;SDS011;10453;50.810;12.540;2023-04-15T15:24:01;9.45;;;7.95;;
20589;SDS011;10453;50.810;12.540;2023-04-15T15:28:19;8.18;;;7.07;;
20589;SDS011;10453;50.810;12.540;2023-04-15T15:32:38;10.38;;;8.35;;
20589;SDS011;10453;50.810;12.540;2023-04-15T15:36:56;12.10;;;9.23;;
20589;SDS011;10453;50.810;12.540;2023-04-15T15:41:13;9.93;;;8.45;;
20589;SDS011;10453;50.810;12.540;2023-04-15T15:45:31;12.30;;;9.23;;
20589;SDS011;10453;50.810;12.540;2023-04-15T15:49:48;11.10;;;8.75;;
20589;SDS011;10453;50.810;12.540;2023-04-15T15:54:05;9.25;;;8.15;;
20589;SDS011;10453;50.810;12.540;2023-04-15T15:58:23;9.65;;;8.65;;
20589;SDS011;10453;50.810;12.540;2023-04-15T16:02:40;11.32;;;8.75;;
20589;SDS011;10453;50.810;12.540;2023-04-15T16:07:01;11.23;;;8.82;;
20589;SDS011;10453;50.810;12.540;2023-04-15T16:11:18;10.88;;;9.25;;
20589;SDS011;10453;50.810;12.540;2023-04-15T16:15:35;11.07;;;8.93;;
20589;SDS011;10453;50.810;12.540;2023-04-15T16:19:53;12.88;;;10.20;;
20589;SDS011;10453;50.810;12.540;2023-04-15T16:24:16;12.48;;;9.32;;
20589;SDS011;10453;50.810;12.540;2023-04-15T16:28:33;13.63;;;10.15;;
20589;SDS011;10453;50.810;12.540;2023-04-15T16:32:52;12.10;;;10.05;;
20589;SDS011;10453;50.810;12.540;2023-04-15T16:37:09;10.93;;;9.15;;
20589;SDS011;10453;50.810;12.540;2023-04-15T16:41:27;9.65;;;8.63;;
20589;SDS011;10453;50.810;12.540;2023-04-15T16:45:45;9.93;;;8.05;;
20589;SDS011;10453;50.810;12.540;2023-04-15T16:50:07;11.68;;;8.10;;
20589;SDS011;10453;50.810;12.540;2023-04-15T16:54:24;10.15;;;9.07;;
20589;SDS011;10453;50.810;12.540;2023-04-15T16:58:41;10.88;;;9.15;;
20589;SDS011;10453;50.810;12.540;2023-04-15T17:02:59;12.68;;;10.38;;
20589;SDS011;10453;50.810;12.540;2023-04-15T17:07:17;11.47;;;10.23;;
20589;SDS011;10453;50.810;12.540;2023-04-15T17:11:34;13.20;;;10.63;;
20589;SDS011;10453;50.810;12.540;2023-04-15T17:15:53;13.13;;;11.18;;
20589;SDS011;10453;50.810;12.540;2023-04-15T17:20:16;14.95;;;12.02;;
20589;SDS011;10453;50.810;12.540;2023-04-15T17:24:34;15.48;;;12.23;;
20589;SDS011;10453;50.810;12.540;2023-04-15T17:28:54;19.10;;;13.60;;
20589;SDS011;10453;50.810;12.540;2023-04-15T17:33:11;14.48;;;11.68;;
20589;SDS011;10453;50.810;12.540;2023-04-15T17:37:48;15.85;;;12.10;;
20589;SDS011;10453;50.810;12.540;2023-04-15T17:42:05;16.38;;;13.15;;
20589;SDS011;10453;50.810;12.540;2023-04-15T17:46:25;17.35;;;13.10;;
20589;SDS011;10453;50.810;12.540;2023-04-15T17:50:43;22.17;;;16.33;;
20589;SDS011;10453;50.810;12.540;2023-04-15T17:55:00;24.50;;;16.77;;
20589;SDS011;10453;50.810;12.540;2023-04-15T17:59:18;21.20;;;14.57;;
20589;SDS011;10453;50.810;12.540;2023-04-15T18:03:35;21.50;;;15.55;;
20589;SDS011;10453;50.810;12.540;2023-04-15T18:07:53;25.83;;;16.58;;
20589;SDS011;10453;50.810;12.540;2023-04-15T18:12:11;25.80;;;17.00;;
20589;SDS011;10453;50.810;12.540;2023-04-15T18:16:28;22.30;;;14.82;;
20589;SDS011;10453;50.810;12.540;2023-04-15T18:20:45;28.48;;;18.25;;
20589;SDS011;10453;50.810;12.540;2023-04-15T18:25:03;29.90;;;18.63;;
20589;SDS011;10453;50.810;12.540;2023-04-15T18:29:21;38.75;;;24.30;;
20589;SDS011;10453;50.810;12.540;2023-04-15T18:33:38;34.22;;;22.65;;
20589;SDS011;10453;50.810;12.540;2023-04-15T18:37:56;38.17;;;24.20;;
20589;SDS011;10453;50.810;12.540;2023-04-15T18:42:16;34.92;;;22.60;;
20589;SDS011;10453;50.810;12.540;2023-04-15T18:46:33;42.55;;;22.88;;
20589;SDS011;10453;50.810;12.540;2023-04-15T18:50:51;35.38;;;21.85;;
20589;SDS011;10453;50.810;12.540;2023-04-15T18:59:27;30.42;;;17.20;;
20589;SDS011;10453;50.810;12.540;2023-04-15T19:03:46;42.17;;;20.58;;
20589;SDS011;10453;50.810;12.540;2023-04-15T19:08:03;36.83;;;19.30;;
20589;SDS011;10453;50.810;12.540;2023-04-15T19:12:21;37.72;;;18.40;;
20589;SDS011;10453;50.810;12.540;2023-04-15T19:16:38;36.63;;;18.80;;
20589;SDS011;10453;50.810;12.540;2023-04-15T19:20:55;32.17;;;18.13;;
20589;SDS011;10453;50.810;12.540;2023-04-15T19:25:13;34.85;;;17.40;;
20589;SDS011;10453;50.810;12.540;2023-04-15T19:29:30;36.63;;;16.95;;
20589;SDS011;10453;50.810;12.540;2023-04-15T19:33:47;35.28;;;17.48;;
20589;SDS011;10453;50.810;12.540;2023-04-15T19:38:04;30.83;;;18.75;;
20589;SDS011;10453;50.810;12.540;2023-04-15T19:42:22;38.83;;;21.80;;
20589;SDS011;10453;50.810;12.540;2023-04-15T19:46:40;37.65;;;20.60;;
20589;SDS011;10453;50.810;12.540;2023-04-15T19:51:03;39.28;;;21.17;;
20589;SDS011;10453;50.810;12.540;2023-04-15T19:55:20;33.05;;;18.70;;
20589;SDS011;10453;50.810;12.540;2023-04-15T19:59:38;33.55;;;17.73;;
20589;SDS011;10453;50.810;12.540;2023-04-15T20:03:55;36.75;;;19.02;;
20589;SDS011;10453;50.810;12.540;2023-04-15T20:08:13;42.08;;;20.02;;
20589;SDS011;10453;50.810;12.540;2023-04-15T20:12:30;45.25;;;21.45;;
20589;SDS011;10453;50.810;12.540;2023-04-15T20:17:07;44.10;;;21.80;;
20589;SDS011;10453;50.810;12.540;2023-04-15T20:21:24;58.13;;;23.15;;
20589;SDS011;10453;50.810;12.540;2023-04-15T20:25:41;38.40;;;19.45;;
20589;SDS011;10453;50.810;12.540;2023-04-15T20:29:58;48.00;;;21.13;;
20589;SDS011;10453;50.810;12.540;2023-04-15T20:34:16;51.17;;;22.55;;
20589;SDS011;10453;50.810;12.540;2023-04-15T20:38:33;60.53;;;24.38;;
20589;SDS011;10453;50.810;12.540;2023-04-15T20:42:50;54.15;;;24.75;;
20589;SDS011;10453;50.810;12.540;2023-04-15T20:47:07;59.10;;;24.92;;
20589;SDS011;10453;50.810;12.540;2023-04-15T20:51:24;57.28;;;26.08;;
20589;SDS011;10453;50.810;12.540;2023-04-15T20:55:43;74.38;;;26.67;;
20589;SDS011;10453;50.810;12.540;2023-04-15T21:00:00;63.53;;;26.80;;
20589;SDS011;10453;50.810;12.540;2023-04-15T21:04:17;61.63;;;27.63;;
20589;SDS011;10453;50.810;12.540;2023-04-15T21:08:34;53.83;;;25.90;;
20589;SDS011;10453;50.810;12.540;2023-04-15T21:12:51;51.50;;;26.13;;
20589;SDS011;10453;50.810;12.540;2023-04-15T21:17:09;54.10;;;26.25;;
20589;SDS011;10453;50.810;12.540;2023-04-15T21:21:27;49.95;;;25.48;;
20589;SDS011;10453;50.810;12.540;2023-04-15T21:25:44;50.20;;;25.17;;
20589;SDS011;10453;50.810;12.540;2023-04-15T21:30:01;51.15;;;24.65;;
20589;SDS011;10453;50.810;12.540;2023-04-15T21:34:19;58.58;;;25.38;;
20589;SDS011;10453;50.810;12.540;2023-04-15T21:38:36;59.67;;;26.10;;
20589;SDS011;10453;50.810;12.540;2023-04-15T21:42:53;68.38;;;28.23;;
20589;SDS011;10453;50.810;12.540;2023-04-15T21:47:10;65.22;;;27.13;;
20589;SDS011;10453;50.810;12.540;2023-04-15T21:51:28;75.43;;;28.02;;
20589;SDS011;10453;50.810;12.540;2023-04-15T21:55:45;69.95;;;28.67;;
20589;SDS011;10453;50.810;12.540;2023-04-15T22:00:02;73.63;;;29.60;;
20589;SDS011;10453;50.810;12.540;2023-04-15T22:04:21;55.17;;;24.45;;
20589;SDS011;10453;50.810;12.540;2023-04-15T22:08:39;62.58;;;27.85;;
20589;SDS011;10453;50.810;12.540;2023-04-15T22:13:12;63.42;;;27.10;;
20589;SDS011;10453;50.810;12.540;2023-04-15T22:17:29;71.50;;;29.73;;
20589;SDS011;10453;50.810;12.540;2023-04-15T22:21:48;71.80;;;31.27;;
20589;SDS011;10453;50.810;12.540;2023-04-15T22:30:22;66.88;;;26.73;;
20589;SDS011;10453;50.810;12.540;2023-04-15T22:34:40;62.45;;;25.85;;
20589;SDS011;10453;50.810;12.540;2023-04-15T22:38:57;55.88;;;25.80;;
20589;SDS011;10453;50.810;12.540;2023-04-15T22:43:14;44.80;;;23.17;;
20589;SDS011;10453;50.810;12.540;2023-04-15T22:47:31;47.13;;;23.42;;
20589;SDS011;10453;50.810;12.540;2023-04-15T22:51:48;78.50;;;27.73;;
20589;SDS011;10453;50.810;12.540;2023-04-15T22:56:05;98.05;;;29.20;;
20589;SDS011;10453;50.810;12.540;2023-04-15T23:00:23;57.92;;;26.38;;
20589;SDS011;10453;50.810;12.540;2023-04-15T23:04:40;70.78;;;29.17;;
20589;SDS011;10453;50.810;12.540;2023-04-15T23:08:57;77.13;;;30.48;;
20589;SDS011;10453;50.810;12.540;2023-04-15T23:13:14;66.55;;;27.33;;
20589;SDS011;10453;50.810;12.540;2023-04-15T23:17:32;68.50;;;27.08;;
20589;SDS011;10453;50.810;12.540;2023-04-15T23:21:50;77.93;;;30.92;;
20589;SDS011;10453;50.810;12.540;2023-04-15T23:26:08;68.80;;;30.97;;
20589;SDS011;10453;50.810;12.540;2023-04-15T23:30:25;81.60;;;32.33;;
20589;SDS011;10453;50.810;12.540;2023-04-15T23:34:42;117.70;;;37.72;;
20589;SDS011;10453;50.810;12.540;2023-04-15T23:38:59;67.93;;;32.03;;
20589;SDS011;10453;50.810;12.540;2023-04-15T23:43:17;99.70;;;36.83;;
20589;SDS011;10453;50.810;12.540;2023-04-15T23:47:34;104.72;;;39.75;;
20589;SDS011;10453;50.810;12.540;2023-04-15T23:51:51;91.47;;;35.40;;
20589;SDS011;10453;50.810;12.540;2023-04-15T23:56:08;122.65;;;40.05;;
